sensor_id;sensor_type;location;lat;lon;timestamp;P1;durP1;ratioP1;P2;durP2;ratioP2
16963;SDS011;8598;50.508;10.436;2023-12-22T00:01:51;7.80;;;2.30;;
16963;SDS011;8598;50.508;10.436;2023-12-22T00:04:18;12.00;;;2.47;;
16963;SDS011;8598;50.508;10.436;2023-12-22T00:06:46;10.07;;;3.23;;
16963;SDS011;8598;50.508;10.436;2023-12-22T00:09:13;13.10;;;2.90;;
16963;SDS011;8598;50.508;10.436;2023-12-22T00:11:40;11.53;;;2.80;;
16963;SDS011;8598;50.508;10.436;2023-12-22T00:14:07;14.17;;;2.77;;
16963;SDS011;8598;50.508;10.436;2023-12-22T00:16:33;9.43;;;2.97;;
16963;SDS011;8598;50.508;10.436;2023-12-22T00:19:02;9.33;;;2.37;;
16963;SDS011;8598;50.508;10.436;2023-12-22T00:21:29;8.73;;;2.60;;
16963;SDS011;8598;50.508;10.436;2023-12-22T00:23:58;5.50;;;2.07;;
16963;SDS011;8598;50.508;10.436;2023-12-22T00:26:24;10.03;;;2.50;;
16963;SDS011;8598;50.508;10.436;2023-12-22T00:28:51;6.27;;;2.33;;
16963;SDS011;8598;50.508;10.436;2023-12-22T00:31:17;5.17;;;2.17;;
16963;SDS011;8598;50.508;10.436;2023-12-22T00:33:44;14.53;;;2.87;;
16963;SDS011;8598;50.508;10.436;2023-12-22T00:36:11;9.00;;;2.77;;
16963;SDS011;8598;50.508;10.436;2023-12-22T00:38:38;7.27;;;2.47;;
16963;SDS011;8598;50.508;10.436;2023-12-22T00:41:06;10.97;;;3.03;;
16963;SDS011;8598;50.508;10.436;2023-12-22T00:43:32;7.53;;;2.57;;
16963;SDS011;8598;50.508;10.436;2023-12-22T00:45:59;11.33;;;3.07;;
16963;SDS011;8598;50.508;10.436;2023-12-22T00:48:26;8.97;;;2.40;;
16963;SDS011;8598;50.508;10.436;2023-12-22T00:50:53;7.43;;;2.50;;
16963;SDS011;8598;50.508;10.436;2023-12-22T00:53:20;7.73;;;2.97;;
16963;SDS011;8598;50.508;10.436;2023-12-22T00:55:46;10.23;;;2.60;;
16963;SDS011;8598;50.508;10.436;2023-12-22T00:58:14;11.20;;;2.67;;
16963;SDS011;8598;50.508;10.436;2023-12-22T01:00:41;9.47;;;2.97;;
16963;SDS011;8598;50.508;10.436;2023-12-22T01:03:07;7.43;;;3.70;;
16963;SDS011;8598;50.508;10.436;2023-12-22T01:05:36;11.67;;;2.90;;
16963;SDS011;8598;50.508;10.436;2023-12-22T01:08:03;9.80;;;2.53;;
16963;SDS011;8598;50.508;10.436;2023-12-22T01:10:30;8.80;;;2.93;;
16963;SDS011;8598;50.508;10.436;2023-12-22T01:12:57;10.83;;;2.90;;
16963;SDS011;8598;50.508;10.436;2023-12-22T01:15:25;7.33;;;2.90;;
16963;SDS011;8598;50.508;10.436;2023-12-22T01:17:52;9.00;;;2.60;;
16963;SDS011;8598;50.508;10.436;2023-12-22T01:20:18;6.77;;;3.10;;
16963;SDS011;8598;50.508;10.436;2023-12-22T01:22:45;10.53;;;2.93;;
16963;SDS011;8598;50.508;10.436;2023-12-22T01:25:11;10.63;;;2.73;;
16963;SDS011;8598;50.508;10.436;2023-12-22T01:27:38;14.70;;;2.93;;
16963;SDS011;8598;50.508;10.436;2023-12-22T01:30:05;11.03;;;3.33;;
16963;SDS011;8598;50.508;10.436;2023-12-22T01:32:34;4.87;;;2.17;;
16963;SDS011;8598;50.508;10.436;2023-12-22T01:35:01;11.13;;;2.60;;
16963;SDS011;8598;50.508;10.436;2023-12-22T01:37:34;12.67;;;3.07;;
16963;SDS011;8598;50.508;10.436;2023-12-22T01:40:00;16.80;;;2.63;;
16963;SDS011;8598;50.508;10.436;2023-12-22T01:42:27;7.33;;;2.27;;
16963;SDS011;8598;50.508;10.436;2023-12-22T01:44:54;6.03;;;2.30;;
16963;SDS011;8598;50.508;10.436;2023-12-22T01:47:21;7.10;;;2.23;;
16963;SDS011;8598;50.508;10.436;2023-12-22T01:49:49;7.07;;;2.77;;
16963;SDS011;8598;50.508;10.436;2023-12-22T01:52:15;7.13;;;1.93;;
16963;SDS011;8598;50.508;10.436;2023-12-22T01:54:42;9.80;;;2.40;;
16963;SDS011;8598;50.508;10.436;2023-12-22T01:57:09;10.37;;;2.20;;
16963;SDS011;8598;50.508;10.436;2023-12-22T01:59:38;2.83;;;2.10;;
16963;SDS011;8598;50.508;10.436;2023-12-22T02:02:05;5.70;;;1.90;;
16963;SDS011;8598;50.508;10.436;2023-12-22T02:04:31;3.73;;;1.80;;
16963;SDS011;8598;50.508;10.436;2023-12-22T02:07:01;8.37;;;1.80;;
16963;SDS011;8598;50.508;10.436;2023-12-22T02:09:28;5.93;;;2.10;;
16963;SDS011;8598;50.508;10.436;2023-12-22T02:11:55;6.10;;;2.17;;
16963;SDS011;8598;50.508;10.436;2023-12-22T02:14:22;4.97;;;2.27;;
16963;SDS011;8598;50.508;10.436;2023-12-22T02:16:49;4.37;;;1.83;;
16963;SDS011;8598;50.508;10.436;2023-12-22T02:19:23;9.47;;;2.60;;
16963;SDS011;8598;50.508;10.436;2023-12-22T02:22:05;4.20;;;1.80;;
16963;SDS011;8598;50.508;10.436;2023-12-22T02:24:34;5.10;;;2.17;;
16963;SDS011;8598;50.508;10.436;2023-12-22T02:27:03;4.73;;;1.73;;
16963;SDS011;8598;50.508;10.436;2023-12-22T02:29:32;6.63;;;2.20;;
16963;SDS011;8598;50.508;10.436;2023-12-22T02:32:02;10.47;;;2.97;;
16963;SDS011;8598;50.508;10.436;2023-12-22T02:34:33;9.63;;;1.57;;
16963;SDS011;8598;50.508;10.436;2023-12-22T02:37:02;4.73;;;1.90;;
16963;SDS011;8598;50.508;10.436;2023-12-22T02:39:33;6.13;;;2.30;;
16963;SDS011;8598;50.508;10.436;2023-12-22T02:42:00;5.87;;;1.80;;
16963;SDS011;8598;50.508;10.436;2023-12-22T02:44:27;10.03;;;2.40;;
16963;SDS011;8598;50.508;10.436;2023-12-22T02:46:53;6.23;;;2.10;;
16963;SDS011;8598;50.508;10.436;2023-12-22T02:49:20;8.70;;;2.47;;
16963;SDS011;8598;50.508;10.436;2023-12-22T02:51:47;6.90;;;2.03;;
16963;SDS011;8598;50.508;10.436;2023-12-22T02:54:13;6.87;;;2.30;;
16963;SDS011;8598;50.508;10.436;2023-12-22T02:56:41;7.77;;;2.50;;
16963;SDS011;8598;50.508;10.436;2023-12-22T02:59:08;5.70;;;2.37;;
16963;SDS011;8598;50.508;10.436;2023-12-22T03:01:35;6.57;;;2.27;;
16963;SDS011;8598;50.508;10.436;2023-12-22T03:04:02;12.47;;;2.30;;
16963;SDS011;8598;50.508;10.436;2023-12-22T03:06:28;3.03;;;2.33;;
16963;SDS011;8598;50.508;10.436;2023-12-22T03:08:55;7.80;;;2.47;;
16963;SDS011;8598;50.508;10.436;2023-12-22T03:11:21;5.40;;;2.27;;
16963;SDS011;8598;50.508;10.436;2023-12-22T03:13:49;5.87;;;2.20;;
16963;SDS011;8598;50.508;10.436;2023-12-22T03:16:16;5.63;;;2.73;;
16963;SDS011;8598;50.508;10.436;2023-12-22T03:18:42;6.77;;;2.07;;
16963;SDS011;8598;50.508;10.436;2023-12-22T03:21:15;6.50;;;2.53;;
16963;SDS011;8598;50.508;10.436;2023-12-22T03:23:43;9.77;;;2.33;;
16963;SDS011;8598;50.508;10.436;2023-12-22T03:26:10;3.53;;;1.93;;
16963;SDS011;8598;50.508;10.436;2023-12-22T03:28:36;8.60;;;2.03;;
16963;SDS011;8598;50.508;10.436;2023-12-22T03:31:04;5.03;;;2.00;;
16963;SDS011;8598;50.508;10.436;2023-12-22T03:33:32;6.77;;;2.00;;
16963;SDS011;8598;50.508;10.436;2023-12-22T03:35:59;3.83;;;1.80;;
16963;SDS011;8598;50.508;10.436;2023-12-22T03:38:25;5.63;;;1.90;;
16963;SDS011;8598;50.508;10.436;2023-12-22T03:40:52;11.93;;;3.43;;
16963;SDS011;8598;50.508;10.436;2023-12-22T03:43:18;5.60;;;2.40;;
16963;SDS011;8598;50.508;10.436;2023-12-22T03:45:45;4.17;;;1.93;;
16963;SDS011;8598;50.508;10.436;2023-12-22T03:48:13;9.13;;;2.10;;
16963;SDS011;8598;50.508;10.436;2023-12-22T03:50:40;5.83;;;2.33;;
16963;SDS011;8598;50.508;10.436;2023-12-22T03:53:06;5.80;;;2.13;;
16963;SDS011;8598;50.508;10.436;2023-12-22T03:55:33;6.30;;;2.77;;
16963;SDS011;8598;50.508;10.436;2023-12-22T03:57:58;3.70;;;1.77;;
16963;SDS011;8598;50.508;10.436;2023-12-22T04:00:25;7.33;;;2.50;;
16963;SDS011;8598;50.508;10.436;2023-12-22T04:02:52;5.00;;;2.50;;
16963;SDS011;8598;50.508;10.436;2023-12-22T04:05:20;6.53;;;2.03;;
16963;SDS011;8598;50.508;10.436;2023-12-22T04:07:47;8.83;;;2.00;;
16963;SDS011;8598;50.508;10.436;2023-12-22T04:10:15;6.40;;;3.00;;
16963;SDS011;8598;50.508;10.436;2023-12-22T04:12:42;7.60;;;2.70;;
16963;SDS011;8598;50.508;10.436;2023-12-22T04:15:09;3.73;;;2.00;;
16963;SDS011;8598;50.508;10.436;2023-12-22T04:17:36;9.13;;;3.00;;
16963;SDS011;8598;50.508;10.436;2023-12-22T04:20:02;4.53;;;1.97;;
16963;SDS011;8598;50.508;10.436;2023-12-22T04:22:31;5.70;;;1.80;;
16963;SDS011;8598;50.508;10.436;2023-12-22T04:24:58;10.97;;;2.47;;
16963;SDS011;8598;50.508;10.436;2023-12-22T04:27:24;4.53;;;2.83;;
16963;SDS011;8598;50.508;10.436;2023-12-22T04:29:51;6.27;;;2.30;;
16963;SDS011;8598;50.508;10.436;2023-12-22T04:32:18;5.83;;;2.20;;
16963;SDS011;8598;50.508;10.436;2023-12-22T04:34:44;7.87;;;3.00;;
16963;SDS011;8598;50.508;10.436;2023-12-22T04:37:11;4.80;;;2.27;;
16963;SDS011;8598;50.508;10.436;2023-12-22T04:39:39;3.80;;;2.23;;
16963;SDS011;8598;50.508;10.436;2023-12-22T04:42:06;5.50;;;2.67;;
16963;SDS011;8598;50.508;10.436;2023-12-22T04:44:33;5.43;;;2.10;;
16963;SDS011;8598;50.508;10.436;2023-12-22T04:46:59;5.27;;;1.90;;
16963;SDS011;8598;50.508;10.436;2023-12-22T04:49:26;5.80;;;1.77;;
16963;SDS011;8598;50.508;10.436;2023-12-22T04:51:53;3.63;;;1.83;;
16963;SDS011;8598;50.508;10.436;2023-12-22T04:54:19;6.77;;;2.03;;
16963;SDS011;8598;50.508;10.436;2023-12-22T04:56:47;3.33;;;2.10;;
16963;SDS011;8598;50.508;10.436;2023-12-22T04:59:14;7.80;;;1.70;;
16963;SDS011;8598;50.508;10.436;2023-12-22T05:01:40;5.83;;;1.80;;
16963;SDS011;8598;50.508;10.436;2023-12-22T05:04:07;6.70;;;2.20;;
16963;SDS011;8598;50.508;10.436;2023-12-22T05:06:34;4.30;;;2.00;;
16963;SDS011;8598;50.508;10.436;2023-12-22T05:09:01;3.13;;;2.13;;
16963;SDS011;8598;50.508;10.436;2023-12-22T05:11:28;5.27;;;2.20;;
16963;SDS011;8598;50.508;10.436;2023-12-22T05:13:56;10.53;;;1.93;;
16963;SDS011;8598;50.508;10.436;2023-12-22T05:16:23;5.67;;;2.33;;
16963;SDS011;8598;50.508;10.436;2023-12-22T05:18:49;4.00;;;2.07;;
16963;SDS011;8598;50.508;10.436;2023-12-22T05:21:16;11.13;;;2.23;;
16963;SDS011;8598;50.508;10.436;2023-12-22T05:23:42;5.50;;;2.20;;
16963;SDS011;8598;50.508;10.436;2023-12-22T05:26:09;7.20;;;2.87;;
16963;SDS011;8598;50.508;10.436;2023-12-22T05:28:36;6.83;;;2.33;;
16963;SDS011;8598;50.508;10.436;2023-12-22T05:31:04;1.80;;;1.50;;
16963;SDS011;8598;50.508;10.436;2023-12-22T05:33:30;6.97;;;2.03;;
16963;SDS011;8598;50.508;10.436;2023-12-22T05:35:57;7.73;;;1.80;;
16963;SDS011;8598;50.508;10.436;2023-12-22T05:38:24;4.30;;;1.77;;
16963;SDS011;8598;50.508;10.436;2023-12-22T05:40:50;6.87;;;2.30;;
16963;SDS011;8598;50.508;10.436;2023-12-22T05:43:17;4.80;;;2.13;;
16963;SDS011;8598;50.508;10.436;2023-12-22T05:45:43;2.07;;;1.60;;
16963;SDS011;8598;50.508;10.436;2023-12-22T05:48:11;4.50;;;1.63;;
16963;SDS011;8598;50.508;10.436;2023-12-22T05:50:38;4.50;;;1.53;;
16963;SDS011;8598;50.508;10.436;2023-12-22T05:53:04;11.13;;;2.33;;
16963;SDS011;8598;50.508;10.436;2023-12-22T05:55:31;3.60;;;1.63;;
16963;SDS011;8598;50.508;10.436;2023-12-22T05:57:58;1.30;;;1.20;;
16963;SDS011;8598;50.508;10.436;2023-12-22T06:00:24;4.50;;;1.90;;
16963;SDS011;8598;50.508;10.436;2023-12-22T06:02:51;6.00;;;1.80;;
16963;SDS011;8598;50.508;10.436;2023-12-22T06:05:19;4.33;;;1.43;;
16963;SDS011;8598;50.508;10.436;2023-12-22T06:07:46;2.07;;;1.43;;
16963;SDS011;8598;50.508;10.436;2023-12-22T06:10:13;3.57;;;1.60;;
16963;SDS011;8598;50.508;10.436;2023-12-22T06:12:39;5.57;;;1.63;;
16963;SDS011;8598;50.508;10.436;2023-12-22T06:15:06;4.30;;;1.53;;
16963;SDS011;8598;50.508;10.436;2023-12-22T06:17:33;4.40;;;1.77;;
16963;SDS011;8598;50.508;10.436;2023-12-22T06:20:00;3.70;;;1.70;;
16963;SDS011;8598;50.508;10.436;2023-12-22T06:22:28;3.07;;;1.43;;
16963;SDS011;8598;50.508;10.436;2023-12-22T06:24:55;6.97;;;1.47;;
16963;SDS011;8598;50.508;10.436;2023-12-22T06:27:21;6.60;;;2.00;;
16963;SDS011;8598;50.508;10.436;2023-12-22T06:29:48;4.57;;;1.80;;
16963;SDS011;8598;50.508;10.436;2023-12-22T06:32:15;5.27;;;1.80;;
16963;SDS011;8598;50.508;10.436;2023-12-22T06:34:42;1.70;;;1.60;;
16963;SDS011;8598;50.508;10.436;2023-12-22T06:37:08;3.47;;;1.73;;
16963;SDS011;8598;50.508;10.436;2023-12-22T06:39:37;2.27;;;1.47;;
16963;SDS011;8598;50.508;10.436;2023-12-22T06:42:04;1.90;;;1.43;;
16963;SDS011;8598;50.508;10.436;2023-12-22T06:44:35;2.30;;;1.77;;
16963;SDS011;8598;50.508;10.436;2023-12-22T06:47:02;1.87;;;1.70;;
16963;SDS011;8598;50.508;10.436;2023-12-22T06:49:30;2.00;;;1.37;;
16963;SDS011;8598;50.508;10.436;2023-12-22T06:51:56;2.27;;;1.37;;
16963;SDS011;8598;50.508;10.436;2023-12-22T06:54:23;1.97;;;1.57;;
16963;SDS011;8598;50.508;10.436;2023-12-22T06:56:51;1.73;;;1.30;;
16963;SDS011;8598;50.508;10.436;2023-12-22T06:59:18;2.30;;;1.47;;
16963;SDS011;8598;50.508;10.436;2023-12-22T07:01:44;7.67;;;1.73;;
16963;SDS011;8598;50.508;10.436;2023-12-22T07:04:11;3.73;;;1.67;;
16963;SDS011;8598;50.508;10.436;2023-12-22T07:06:37;4.37;;;1.43;;
16963;SDS011;8598;50.508;10.436;2023-12-22T07:11:56;2.07;;;1.47;;
16963;SDS011;8598;50.508;10.436;2023-12-22T07:14:23;3.50;;;1.63;;
16963;SDS011;8598;50.508;10.436;2023-12-22T07:16:50;1.53;;;1.40;;
16963;SDS011;8598;50.508;10.436;2023-12-22T07:19:17;1.33;;;1.33;;
16963;SDS011;8598;50.508;10.436;2023-12-22T07:21:43;1.67;;;1.30;;
16963;SDS011;8598;50.508;10.436;2023-12-22T07:24:10;2.30;;;1.40;;
16963;SDS011;8598;50.508;10.436;2023-12-22T07:26:36;2.03;;;1.60;;
16963;SDS011;8598;50.508;10.436;2023-12-22T07:29:04;4.30;;;1.40;;
16963;SDS011;8598;50.508;10.436;2023-12-22T07:31:31;1.67;;;1.57;;
16963;SDS011;8598;50.508;10.436;2023-12-22T07:33:58;2.50;;;1.40;;
16963;SDS011;8598;50.508;10.436;2023-12-22T07:36:24;2.87;;;1.63;;
16963;SDS011;8598;50.508;10.436;2023-12-22T07:38:51;1.63;;;1.53;;
16963;SDS011;8598;50.508;10.436;2023-12-22T07:41:17;4.10;;;1.40;;
16963;SDS011;8598;50.508;10.436;2023-12-22T07:43:44;5.57;;;2.60;;
16963;SDS011;8598;50.508;10.436;2023-12-22T07:46:17;1.77;;;1.23;;
16963;SDS011;8598;50.508;10.436;2023-12-22T07:48:44;4.33;;;1.60;;
16963;SDS011;8598;50.508;10.436;2023-12-22T07:51:11;1.90;;;1.80;;
16963;SDS011;8598;50.508;10.436;2023-12-22T07:53:37;1.70;;;1.60;;
16963;SDS011;8598;50.508;10.436;2023-12-22T07:56:04;3.33;;;1.60;;
16963;SDS011;8598;50.508;10.436;2023-12-22T07:58:32;2.30;;;2.10;;
16963;SDS011;8598;50.508;10.436;2023-12-22T08:00:58;3.40;;;1.60;;
16963;SDS011;8598;50.508;10.436;2023-12-22T08:03:26;2.73;;;1.70;;
16963;SDS011;8598;50.508;10.436;2023-12-22T08:05:53;3.87;;;2.27;;
16963;SDS011;8598;50.508;10.436;2023-12-22T08:08:20;6.47;;;2.43;;
16963;SDS011;8598;50.508;10.436;2023-12-22T08:10:47;8.43;;;1.47;;
16963;SDS011;8598;50.508;10.436;2023-12-22T08:13:14;2.37;;;1.80;;
16963;SDS011;8598;50.508;10.436;2023-12-22T08:15:42;5.17;;;1.73;;
16963;SDS011;8598;50.508;10.436;2023-12-22T08:18:09;2.33;;;1.53;;
16963;SDS011;8598;50.508;10.436;2023-12-22T08:20:37;2.00;;;1.30;;
16963;SDS011;8598;50.508;10.436;2023-12-22T08:23:04;2.27;;;1.70;;
16963;SDS011;8598;50.508;10.436;2023-12-22T08:25:30;6.80;;;1.53;;
16963;SDS011;8598;50.508;10.436;2023-12-22T08:27:57;3.27;;;1.50;;
16963;SDS011;8598;50.508;10.436;2023-12-22T08:30:24;3.07;;;1.50;;
16963;SDS011;8598;50.508;10.436;2023-12-22T08:32:50;3.90;;;1.70;;
16963;SDS011;8598;50.508;10.436;2023-12-22T08:35:17;5.80;;;1.80;;
16963;SDS011;8598;50.508;10.436;2023-12-22T08:37:45;3.27;;;1.40;;
16963;SDS011;8598;50.508;10.436;2023-12-22T08:40:11;6.50;;;2.03;;
16963;SDS011;8598;50.508;10.436;2023-12-22T08:42:38;10.03;;;3.30;;
16963;SDS011;8598;50.508;10.436;2023-12-22T08:45:05;1.90;;;1.60;;
16963;SDS011;8598;50.508;10.436;2023-12-22T08:47:32;6.10;;;2.47;;
16963;SDS011;8598;50.508;10.436;2023-12-22T08:49:59;22.20;;;13.47;;
16963;SDS011;8598;50.508;10.436;2023-12-22T08:52:28;11.47;;;4.90;;
16963;SDS011;8598;50.508;10.436;2023-12-22T08:54:56;2.93;;;1.70;;
16963;SDS011;8598;50.508;10.436;2023-12-22T08:57:23;4.17;;;2.07;;
16963;SDS011;8598;50.508;10.436;2023-12-22T08:59:50;6.40;;;1.90;;
16963;SDS011;8598;50.508;10.436;2023-12-22T09:02:16;9.70;;;3.77;;
16963;SDS011;8598;50.508;10.436;2023-12-22T09:04:43;5.03;;;2.20;;
16963;SDS011;8598;50.508;10.436;2023-12-22T09:07:09;3.40;;;2.10;;
16963;SDS011;8598;50.508;10.436;2023-12-22T09:09:36;9.10;;;3.33;;
16963;SDS011;8598;50.508;10.436;2023-12-22T09:12:04;4.33;;;2.10;;
16963;SDS011;8598;50.508;10.436;2023-12-22T09:14:31;5.30;;;2.47;;
16963;SDS011;8598;50.508;10.436;2023-12-22T09:16:58;3.67;;;2.40;;
16963;SDS011;8598;50.508;10.436;2023-12-22T09:19:24;3.40;;;2.03;;
16963;SDS011;8598;50.508;10.436;2023-12-22T09:21:51;5.60;;;2.13;;
16963;SDS011;8598;50.508;10.436;2023-12-22T09:24:18;5.60;;;2.50;;
16963;SDS011;8598;50.508;10.436;2023-12-22T09:26:44;5.63;;;1.73;;
16963;SDS011;8598;50.508;10.436;2023-12-22T09:29:12;4.03;;;2.03;;
16963;SDS011;8598;50.508;10.436;2023-12-22T09:31:39;4.93;;;1.90;;
16963;SDS011;8598;50.508;10.436;2023-12-22T09:34:06;10.77;;;2.17;;
16963;SDS011;8598;50.508;10.436;2023-12-22T09:36:32;12.30;;;3.37;;
16963;SDS011;8598;50.508;10.436;2023-12-22T09:38:59;4.33;;;1.93;;
16963;SDS011;8598;50.508;10.436;2023-12-22T09:41:26;2.33;;;2.10;;
16963;SDS011;8598;50.508;10.436;2023-12-22T09:43:53;4.50;;;1.70;;
16963;SDS011;8598;50.508;10.436;2023-12-22T09:46:25;4.60;;;2.23;;
16963;SDS011;8598;50.508;10.436;2023-12-22T09:48:52;6.47;;;2.10;;
16963;SDS011;8598;50.508;10.436;2023-12-22T09:51:20;4.53;;;2.80;;
16963;SDS011;8598;50.508;10.436;2023-12-22T09:53:47;3.47;;;1.97;;
16963;SDS011;8598;50.508;10.436;2023-12-22T09:56:16;6.10;;;2.33;;
16963;SDS011;8598;50.508;10.436;2023-12-22T09:58:44;4.30;;;1.83;;
16963;SDS011;8598;50.508;10.436;2023-12-22T10:01:13;3.70;;;1.60;;
16963;SDS011;8598;50.508;10.436;2023-12-22T10:03:41;3.13;;;1.97;;
16963;SDS011;8598;50.508;10.436;2023-12-22T10:06:09;6.47;;;2.10;;
16963;SDS011;8598;50.508;10.436;2023-12-22T10:08:36;5.13;;;1.80;;
16963;SDS011;8598;50.508;10.436;2023-12-22T10:11:04;8.43;;;2.00;;
16963;SDS011;8598;50.508;10.436;2023-12-22T10:13:31;3.87;;;1.97;;
16963;SDS011;8598;50.508;10.436;2023-12-22T10:16:02;7.93;;;2.50;;
16963;SDS011;8598;50.508;10.436;2023-12-22T10:18:30;12.07;;;6.47;;
16963;SDS011;8598;50.508;10.436;2023-12-22T10:20:59;5.40;;;2.13;;
16963;SDS011;8598;50.508;10.436;2023-12-22T10:23:26;7.53;;;3.37;;
16963;SDS011;8598;50.508;10.436;2023-12-22T10:25:52;9.53;;;7.87;;
16963;SDS011;8598;50.508;10.436;2023-12-22T10:28:20;6.17;;;3.07;;
16963;SDS011;8598;50.508;10.436;2023-12-22T10:30:49;8.40;;;3.43;;
16963;SDS011;8598;50.508;10.436;2023-12-22T10:33:17;4.43;;;3.73;;
16963;SDS011;8598;50.508;10.436;2023-12-22T10:35:44;5.40;;;2.63;;
16963;SDS011;8598;50.508;10.436;2023-12-22T10:38:12;4.37;;;2.27;;
16963;SDS011;8598;50.508;10.436;2023-12-22T10:40:38;4.27;;;2.60;;
16963;SDS011;8598;50.508;10.436;2023-12-22T10:43:05;6.83;;;3.40;;
16963;SDS011;8598;50.508;10.436;2023-12-22T10:45:32;5.23;;;3.43;;
16963;SDS011;8598;50.508;10.436;2023-12-22T10:47:59;6.23;;;3.53;;
16963;SDS011;8598;50.508;10.436;2023-12-22T10:50:26;4.30;;;2.50;;
16963;SDS011;8598;50.508;10.436;2023-12-22T10:52:54;9.63;;;3.10;;
16963;SDS011;8598;50.508;10.436;2023-12-22T10:55:22;13.20;;;7.60;;
16963;SDS011;8598;50.508;10.436;2023-12-22T10:57:48;6.73;;;2.27;;
16963;SDS011;8598;50.508;10.436;2023-12-22T11:00:16;5.73;;;1.90;;
16963;SDS011;8598;50.508;10.436;2023-12-22T11:02:47;6.03;;;1.60;;
16963;SDS011;8598;50.508;10.436;2023-12-22T11:05:14;4.43;;;2.30;;
16963;SDS011;8598;50.508;10.436;2023-12-22T11:07:44;5.90;;;2.00;;
16963;SDS011;8598;50.508;10.436;2023-12-22T11:10:14;6.50;;;1.87;;
16963;SDS011;8598;50.508;10.436;2023-12-22T11:12:47;2.80;;;1.60;;
16963;SDS011;8598;50.508;10.436;2023-12-22T11:15:14;2.13;;;1.63;;
16963;SDS011;8598;50.508;10.436;2023-12-22T11:17:44;2.10;;;1.90;;
16963;SDS011;8598;50.508;10.436;2023-12-22T11:20:12;7.97;;;1.90;;
16963;SDS011;8598;50.508;10.436;2023-12-22T11:22:39;3.40;;;2.27;;
16963;SDS011;8598;50.508;10.436;2023-12-22T11:25:08;3.30;;;1.80;;
16963;SDS011;8598;50.508;10.436;2023-12-22T11:27:35;6.00;;;2.30;;
16963;SDS011;8598;50.508;10.436;2023-12-22T11:30:05;5.57;;;2.60;;
16963;SDS011;8598;50.508;10.436;2023-12-22T11:32:33;2.90;;;2.60;;
16963;SDS011;8598;50.508;10.436;2023-12-22T11:35:00;4.97;;;2.30;;
16963;SDS011;8598;50.508;10.436;2023-12-22T11:37:28;2.50;;;2.30;;
16963;SDS011;8598;50.508;10.436;2023-12-22T11:39:57;2.27;;;1.83;;
16963;SDS011;8598;50.508;10.436;2023-12-22T11:42:24;2.93;;;1.70;;
16963;SDS011;8598;50.508;10.436;2023-12-22T11:44:54;1.70;;;1.60;;
16963;SDS011;8598;50.508;10.436;2023-12-22T11:47:23;2.50;;;2.30;;
16963;SDS011;8598;50.508;10.436;2023-12-22T11:49:50;1.80;;;1.70;;
16963;SDS011;8598;50.508;10.436;2023-12-22T11:52:17;1.60;;;1.50;;
16963;SDS011;8598;50.508;10.436;2023-12-22T11:54:50;1.67;;;1.57;;
16963;SDS011;8598;50.508;10.436;2023-12-22T11:57:35;2.07;;;1.70;;
16963;SDS011;8598;50.508;10.436;2023-12-22T12:00:03;1.20;;;1.20;;
16963;SDS011;8598;50.508;10.436;2023-12-22T12:02:34;1.30;;;1.23;;
16963;SDS011;8598;50.508;10.436;2023-12-22T12:05:02;2.70;;;1.60;;
16963;SDS011;8598;50.508;10.436;2023-12-22T12:07:36;1.50;;;1.20;;
16963;SDS011;8598;50.508;10.436;2023-12-22T12:10:09;1.53;;;1.43;;
16963;SDS011;8598;50.508;10.436;2023-12-22T12:12:36;2.10;;;1.90;;
16963;SDS011;8598;50.508;10.436;2023-12-22T12:15:09;2.03;;;1.70;;
16963;SDS011;8598;50.508;10.436;2023-12-22T12:17:40;3.50;;;2.30;;
16963;SDS011;8598;50.508;10.436;2023-12-22T12:20:11;3.30;;;1.60;;
16963;SDS011;8598;50.508;10.436;2023-12-22T12:22:39;4.13;;;3.80;;
16963;SDS011;8598;50.508;10.436;2023-12-22T12:25:09;1.33;;;1.23;;
16963;SDS011;8598;50.508;10.436;2023-12-22T12:27:37;5.83;;;1.77;;
16963;SDS011;8598;50.508;10.436;2023-12-22T12:30:10;18.13;;;9.63;;
16963;SDS011;8598;50.508;10.436;2023-12-22T12:32:43;2.70;;;2.33;;
16963;SDS011;8598;50.508;10.436;2023-12-22T12:35:10;23.77;;;12.17;;
16963;SDS011;8598;50.508;10.436;2023-12-22T12:37:38;6.27;;;3.90;;
16963;SDS011;8598;50.508;10.436;2023-12-22T12:40:06;2.50;;;1.90;;
16963;SDS011;8598;50.508;10.436;2023-12-22T12:42:35;6.17;;;4.17;;
16963;SDS011;8598;50.508;10.436;2023-12-22T12:45:05;5.00;;;3.47;;
16963;SDS011;8598;50.508;10.436;2023-12-22T12:47:33;2.13;;;1.93;;
16963;SDS011;8598;50.508;10.436;2023-12-22T12:50:02;4.20;;;2.77;;
16963;SDS011;8598;50.508;10.436;2023-12-22T12:52:30;11.80;;;8.93;;
16963;SDS011;8598;50.508;10.436;2023-12-22T12:54:57;4.07;;;2.57;;
16963;SDS011;8598;50.508;10.436;2023-12-22T12:57:25;1.93;;;1.63;;
16963;SDS011;8598;50.508;10.436;2023-12-22T12:59:53;1.87;;;1.77;;
16963;SDS011;8598;50.508;10.436;2023-12-22T13:02:20;6.63;;;3.23;;
16963;SDS011;8598;50.508;10.436;2023-12-22T13:04:50;5.67;;;5.03;;
16963;SDS011;8598;50.508;10.436;2023-12-22T13:07:27;2.87;;;1.67;;
16963;SDS011;8598;50.508;10.436;2023-12-22T13:09:53;1.93;;;1.83;;
16963;SDS011;8598;50.508;10.436;2023-12-22T13:12:22;1.53;;;1.47;;
16963;SDS011;8598;50.508;10.436;2023-12-22T13:14:50;2.50;;;1.60;;
16963;SDS011;8598;50.508;10.436;2023-12-22T13:17:17;1.30;;;1.20;;
16963;SDS011;8598;50.508;10.436;2023-12-22T13:19:44;2.10;;;2.00;;
16963;SDS011;8598;50.508;10.436;2023-12-22T13:22:11;2.50;;;1.63;;
16963;SDS011;8598;50.508;10.436;2023-12-22T13:24:40;1.30;;;1.20;;
16963;SDS011;8598;50.508;10.436;2023-12-22T13:27:07;1.70;;;1.60;;
16963;SDS011;8598;50.508;10.436;2023-12-22T13:29:42;3.40;;;2.10;;
16963;SDS011;8598;50.508;10.436;2023-12-22T13:32:20;2.60;;;2.40;;
16963;SDS011;8598;50.508;10.436;2023-12-22T13:34:49;3.77;;;2.63;;
16963;SDS011;8598;50.508;10.436;2023-12-22T13:37:17;5.20;;;4.77;;
16963;SDS011;8598;50.508;10.436;2023-12-22T13:39:45;2.90;;;2.70;;
16963;SDS011;8598;50.508;10.436;2023-12-22T13:42:15;3.40;;;3.10;;
16963;SDS011;8598;50.508;10.436;2023-12-22T13:44:44;4.30;;;2.67;;
16963;SDS011;8598;50.508;10.436;2023-12-22T13:47:12;3.27;;;2.30;;
16963;SDS011;8598;50.508;10.436;2023-12-22T13:49:41;2.20;;;2.10;;
16963;SDS011;8598;50.508;10.436;2023-12-22T13:52:08;2.27;;;2.07;;
16963;SDS011;8598;50.508;10.436;2023-12-22T13:54:52;3.03;;;1.50;;
16963;SDS011;8598;50.508;10.436;2023-12-22T13:57:21;1.90;;;1.70;;
16963;SDS011;8598;50.508;10.436;2023-12-22T13:59:48;4.33;;;1.77;;
16963;SDS011;8598;50.508;10.436;2023-12-22T14:02:18;2.13;;;2.00;;
16963;SDS011;8598;50.508;10.436;2023-12-22T14:04:47;2.30;;;1.50;;
16963;SDS011;8598;50.508;10.436;2023-12-22T14:07:13;3.03;;;1.73;;
16963;SDS011;8598;50.508;10.436;2023-12-22T14:09:40;4.23;;;2.33;;
16963;SDS011;8598;50.508;10.436;2023-12-22T14:12:08;4.73;;;2.60;;
16963;SDS011;8598;50.508;10.436;2023-12-22T14:14:35;1.70;;;1.60;;
16963;SDS011;8598;50.508;10.436;2023-12-22T14:17:01;1.60;;;1.50;;
16963;SDS011;8598;50.508;10.436;2023-12-22T14:19:28;1.77;;;1.67;;
16963;SDS011;8598;50.508;10.436;2023-12-22T14:21:54;2.70;;;2.50;;
16963;SDS011;8598;50.508;10.436;2023-12-22T14:24:22;2.50;;;2.27;;
16963;SDS011;8598;50.508;10.436;2023-12-22T14:26:52;1.93;;;1.73;;
16963;SDS011;8598;50.508;10.436;2023-12-22T14:29:21;2.03;;;1.63;;
16963;SDS011;8598;50.508;10.436;2023-12-22T14:31:48;1.20;;;1.20;;
16963;SDS011;8598;50.508;10.436;2023-12-22T14:34:15;4.43;;;4.13;;
16963;SDS011;8598;50.508;10.436;2023-12-22T14:36:42;2.43;;;2.23;;
16963;SDS011;8598;50.508;10.436;2023-12-22T14:39:08;2.70;;;2.50;;
16963;SDS011;8598;50.508;10.436;2023-12-22T14:41:37;4.43;;;2.20;;
16963;SDS011;8598;50.508;10.436;2023-12-22T14:44:04;11.53;;;5.47;;
16963;SDS011;8598;50.508;10.436;2023-12-22T14:46:32;16.73;;;8.33;;
16963;SDS011;8598;50.508;10.436;2023-12-22T14:48:59;46.30;;;20.90;;
16963;SDS011;8598;50.508;10.436;2023-12-22T14:51:25;53.10;;;24.23;;